Airport View

Enter AWOS ICAO identifier for current METAR.

ex. KFNL

K20U 250050Z AUTO 32008KT 10SM OVC035 10/08 A3003 RMK AO2

25 May 2020 00:53

Frequency: 118.175

Phone: 701-872-9225

Other Area AWOS: KGDV - KBHK - KSDY - KDIK

TAF KGDV 242320Z 2500/2524 VRB06KT P6SM VCSH BKN035 FM250300 VRB05KT P6SM BKN045